sensor_id;sensor_type;location;lat;lon;timestamp;P1;durP1;ratioP1;P2;durP2;ratioP2
72273;SDS011;60208;48.692;8.948;2023-01-26T00:01:37;34.45;;;18.08;;
72273;SDS011;60208;48.692;8.948;2023-01-26T00:04:02;37.33;;;18.17;;
72273;SDS011;60208;48.692;8.948;2023-01-26T00:06:27;36.53;;;18.48;;
72273;SDS011;60208;48.692;8.948;2023-01-26T00:08:53;34.22;;;18.02;;
72273;SDS011;60208;48.692;8.948;2023-01-26T00:11:21;37.92;;;18.08;;
72273;SDS011;60208;48.692;8.948;2023-01-26T00:13:50;31.75;;;16.83;;
72273;SDS011;60208;48.692;8.948;2023-01-26T00:16:16;34.10;;;18.58;;
72273;SDS011;60208;48.692;8.948;2023-01-26T00:21:11;32.30;;;17.20;;
72273;SDS011;60208;48.692;8.948;2023-01-26T00:23:41;33.22;;;18.35;;
72273;SDS011;60208;48.692;8.948;2023-01-26T00:26:07;34.60;;;18.42;;
72273;SDS011;60208;48.692;8.948;2023-01-26T00:28:34;35.88;;;18.02;;
72273;SDS011;60208;48.692;8.948;2023-01-26T00:31:03;35.67;;;18.50;;
72273;SDS011;60208;48.692;8.948;2023-01-26T00:33:29;37.00;;;18.52;;
72273;SDS011;60208;48.692;8.948;2023-01-26T00:35:55;36.53;;;18.27;;
72273;SDS011;60208;48.692;8.948;2023-01-26T00:38:20;36.92;;;19.13;;
72273;SDS011;60208;48.692;8.948;2023-01-26T00:40:46;33.35;;;17.85;;
72273;SDS011;60208;48.692;8.948;2023-01-26T00:43:11;31.10;;;16.05;;
72273;SDS011;60208;48.692;8.948;2023-01-26T00:45:36;36.80;;;17.52;;
72273;SDS011;60208;48.692;8.948;2023-01-26T00:48:02;35.05;;;17.77;;
72273;SDS011;60208;48.692;8.948;2023-01-26T00:50:27;33.55;;;16.52;;
72273;SDS011;60208;48.692;8.948;2023-01-26T00:52:53;30.35;;;16.00;;
72273;SDS011;60208;48.692;8.948;2023-01-26T00:55:18;25.65;;;14.90;;
72273;SDS011;60208;48.692;8.948;2023-01-26T00:57:44;30.13;;;15.80;;
72273;SDS011;60208;48.692;8.948;2023-01-26T01:00:09;30.48;;;15.50;;
72273;SDS011;60208;48.692;8.948;2023-01-26T01:02:40;28.17;;;15.30;;
72273;SDS011;60208;48.692;8.948;2023-01-26T01:05:06;33.97;;;18.63;;
72273;SDS011;60208;48.692;8.948;2023-01-26T01:07:32;31.42;;;15.50;;
72273;SDS011;60208;48.692;8.948;2023-01-26T01:09:57;33.55;;;16.40;;
72273;SDS011;60208;48.692;8.948;2023-01-26T01:12:24;31.10;;;16.40;;
72273;SDS011;60208;48.692;8.948;2023-01-26T01:14:50;34.15;;;16.77;;
72273;SDS011;60208;48.692;8.948;2023-01-26T01:17:15;28.88;;;15.52;;
72273;SDS011;60208;48.692;8.948;2023-01-26T01:19:41;31.85;;;16.55;;
72273;SDS011;60208;48.692;8.948;2023-01-26T01:22:06;28.67;;;14.32;;
72273;SDS011;60208;48.692;8.948;2023-01-26T01:24:32;27.80;;;14.30;;
72273;SDS011;60208;48.692;8.948;2023-01-26T01:26:59;28.33;;;13.65;;
72273;SDS011;60208;48.692;8.948;2023-01-26T01:29:25;28.63;;;14.50;;
72273;SDS011;60208;48.692;8.948;2023-01-26T01:31:50;26.85;;;14.13;;
72273;SDS011;60208;48.692;8.948;2023-01-26T01:34:16;28.73;;;15.32;;
72273;SDS011;60208;48.692;8.948;2023-01-26T01:36:41;31.75;;;15.80;;
72273;SDS011;60208;48.692;8.948;2023-01-26T01:39:06;29.23;;;15.02;;
72273;SDS011;60208;48.692;8.948;2023-01-26T01:41:32;31.63;;;15.70;;
72273;SDS011;60208;48.692;8.948;2023-01-26T01:44:14;28.77;;;14.88;;
72273;SDS011;60208;48.692;8.948;2023-01-26T01:46:42;30.35;;;16.15;;
72273;SDS011;60208;48.692;8.948;2023-01-26T01:49:16;32.38;;;16.70;;
72273;SDS011;60208;48.692;8.948;2023-01-26T01:51:44;30.40;;;16.42;;
72273;SDS011;60208;48.692;8.948;2023-01-26T01:54:14;33.38;;;16.17;;
72273;SDS011;60208;48.692;8.948;2023-01-26T01:56:41;30.33;;;16.05;;
72273;SDS011;60208;48.692;8.948;2023-01-26T01:59:09;29.00;;;15.52;;
72273;SDS011;60208;48.692;8.948;2023-01-26T02:01:35;27.73;;;15.82;;
72273;SDS011;60208;48.692;8.948;2023-01-26T02:04:01;32.42;;;17.13;;
72273;SDS011;60208;48.692;8.948;2023-01-26T02:09:03;26.85;;;14.38;;
72273;SDS011;60208;48.692;8.948;2023-01-26T02:11:39;29.55;;;14.75;;
72273;SDS011;60208;48.692;8.948;2023-01-26T02:14:06;30.08;;;15.93;;
72273;SDS011;60208;48.692;8.948;2023-01-26T02:16:33;29.50;;;15.18;;
72273;SDS011;60208;48.692;8.948;2023-01-26T02:18:59;32.95;;;16.00;;
72273;SDS011;60208;48.692;8.948;2023-01-26T02:21:24;32.38;;;15.77;;
72273;SDS011;60208;48.692;8.948;2023-01-26T02:24:06;25.05;;;14.13;;
72273;SDS011;60208;48.692;8.948;2023-01-26T02:26:35;25.20;;;14.77;;
72273;SDS011;60208;48.692;8.948;2023-01-26T02:29:02;32.72;;;16.55;;
72273;SDS011;60208;48.692;8.948;2023-01-26T02:31:29;27.77;;;14.35;;
72273;SDS011;60208;48.692;8.948;2023-01-26T02:33:54;28.52;;;14.75;;
72273;SDS011;60208;48.692;8.948;2023-01-26T02:36:21;30.25;;;15.60;;
72273;SDS011;60208;48.692;8.948;2023-01-26T02:41:32;30.52;;;15.50;;
72273;SDS011;60208;48.692;8.948;2023-01-26T02:44:16;31.00;;;16.33;;
72273;SDS011;60208;48.692;8.948;2023-01-26T02:46:41;30.02;;;15.93;;
72273;SDS011;60208;48.692;8.948;2023-01-26T02:49:07;30.67;;;16.23;;
72273;SDS011;60208;48.692;8.948;2023-01-26T02:51:51;29.10;;;15.38;;
72273;SDS011;60208;48.692;8.948;2023-01-26T02:54:16;27.92;;;15.07;;
72273;SDS011;60208;48.692;8.948;2023-01-26T02:57:01;29.88;;;16.27;;
72273;SDS011;60208;48.692;8.948;2023-01-26T02:59:26;29.02;;;15.93;;
72273;SDS011;60208;48.692;8.948;2023-01-26T03:01:51;32.05;;;16.83;;
72273;SDS011;60208;48.692;8.948;2023-01-26T03:04:20;30.25;;;16.08;;
72273;SDS011;60208;48.692;8.948;2023-01-26T03:06:45;30.33;;;16.33;;
72273;SDS011;60208;48.692;8.948;2023-01-26T03:09:10;30.08;;;15.65;;
72273;SDS011;60208;48.692;8.948;2023-01-26T03:11:36;30.67;;;15.40;;
72273;SDS011;60208;48.692;8.948;2023-01-26T03:14:16;29.10;;;15.85;;
72273;SDS011;60208;48.692;8.948;2023-01-26T03:16:41;30.77;;;16.25;;
72273;SDS011;60208;48.692;8.948;2023-01-26T03:19:08;26.92;;;15.35;;
72273;SDS011;60208;48.692;8.948;2023-01-26T03:21:55;29.35;;;15.23;;
72273;SDS011;60208;48.692;8.948;2023-01-26T03:24:39;28.48;;;15.27;;
72273;SDS011;60208;48.692;8.948;2023-01-26T03:27:23;29.65;;;14.95;;
72273;SDS011;60208;48.692;8.948;2023-01-26T03:29:51;29.40;;;15.57;;
72273;SDS011;60208;48.692;8.948;2023-01-26T03:32:17;26.85;;;15.07;;
72273;SDS011;60208;48.692;8.948;2023-01-26T03:34:42;27.48;;;13.95;;
72273;SDS011;60208;48.692;8.948;2023-01-26T03:37:08;27.65;;;14.98;;
72273;SDS011;60208;48.692;8.948;2023-01-26T03:39:33;29.13;;;14.85;;
72273;SDS011;60208;48.692;8.948;2023-01-26T03:42:17;28.33;;;14.82;;
72273;SDS011;60208;48.692;8.948;2023-01-26T03:45:01;27.10;;;14.57;;
72273;SDS011;60208;48.692;8.948;2023-01-26T03:47:45;26.23;;;13.93;;
72273;SDS011;60208;48.692;8.948;2023-01-26T03:50:29;28.92;;;14.50;;
72273;SDS011;60208;48.692;8.948;2023-01-26T03:53:18;29.95;;;15.32;;
72273;SDS011;60208;48.692;8.948;2023-01-26T03:56:03;32.20;;;15.77;;
72273;SDS011;60208;48.692;8.948;2023-01-26T03:58:42;29.65;;;14.98;;
72273;SDS011;60208;48.692;8.948;2023-01-26T04:01:08;30.75;;;15.55;;
72273;SDS011;60208;48.692;8.948;2023-01-26T04:03:35;26.70;;;14.25;;
72273;SDS011;60208;48.692;8.948;2023-01-26T04:06:19;26.92;;;14.13;;
72273;SDS011;60208;48.692;8.948;2023-01-26T04:09:03;24.08;;;12.48;;
72273;SDS011;60208;48.692;8.948;2023-01-26T04:11:29;24.13;;;12.90;;
72273;SDS011;60208;48.692;8.948;2023-01-26T04:13:54;22.33;;;12.18;;
72273;SDS011;60208;48.692;8.948;2023-01-26T04:16:38;23.38;;;12.60;;
72273;SDS011;60208;48.692;8.948;2023-01-26T04:19:22;20.27;;;12.45;;
72273;SDS011;60208;48.692;8.948;2023-01-26T04:22:06;23.23;;;12.15;;
72273;SDS011;60208;48.692;8.948;2023-01-26T04:24:31;22.90;;;12.77;;
72273;SDS011;60208;48.692;8.948;2023-01-26T04:26:57;22.80;;;12.80;;
72273;SDS011;60208;48.692;8.948;2023-01-26T04:29:22;24.70;;;13.02;;
72273;SDS011;60208;48.692;8.948;2023-01-26T04:31:47;20.85;;;11.65;;
72273;SDS011;60208;48.692;8.948;2023-01-26T04:34:13;19.17;;;10.68;;
72273;SDS011;60208;48.692;8.948;2023-01-26T04:36:40;21.15;;;11.38;;
72273;SDS011;60208;48.692;8.948;2023-01-26T04:39:06;18.17;;;10.90;;
72273;SDS011;60208;48.692;8.948;2023-01-26T04:41:31;18.88;;;11.25;;
72273;SDS011;60208;48.692;8.948;2023-01-26T04:43:58;20.40;;;11.90;;
72273;SDS011;60208;48.692;8.948;2023-01-26T04:46:23;23.13;;;11.35;;
72273;SDS011;60208;48.692;8.948;2023-01-26T04:48:49;20.70;;;11.82;;
72273;SDS011;60208;48.692;8.948;2023-01-26T04:51:16;17.83;;;10.60;;
72273;SDS011;60208;48.692;8.948;2023-01-26T04:53:44;17.58;;;10.15;;
72273;SDS011;60208;48.692;8.948;2023-01-26T04:56:13;17.50;;;10.50;;
72273;SDS011;60208;48.692;8.948;2023-01-26T04:58:42;20.65;;;11.15;;
72273;SDS011;60208;48.692;8.948;2023-01-26T05:01:07;17.00;;;9.75;;
72273;SDS011;60208;48.692;8.948;2023-01-26T05:03:32;19.17;;;10.48;;
72273;SDS011;60208;48.692;8.948;2023-01-26T05:05:58;19.92;;;10.30;;
72273;SDS011;60208;48.692;8.948;2023-01-26T05:08:23;17.02;;;9.50;;
72273;SDS011;60208;48.692;8.948;2023-01-26T05:10:48;16.65;;;9.93;;
72273;SDS011;60208;48.692;8.948;2023-01-26T05:13:15;16.05;;;9.27;;
72273;SDS011;60208;48.692;8.948;2023-01-26T05:15:41;14.68;;;8.75;;
72273;SDS011;60208;48.692;8.948;2023-01-26T05:18:06;14.50;;;8.38;;
72273;SDS011;60208;48.692;8.948;2023-01-26T05:20:32;15.55;;;8.88;;
72273;SDS011;60208;48.692;8.948;2023-01-26T05:22:57;14.98;;;8.88;;
72273;SDS011;60208;48.692;8.948;2023-01-26T05:25:23;17.33;;;9.25;;
72273;SDS011;60208;48.692;8.948;2023-01-26T05:27:49;14.73;;;8.90;;
72273;SDS011;60208;48.692;8.948;2023-01-26T05:30:16;17.30;;;9.23;;
72273;SDS011;60208;48.692;8.948;2023-01-26T05:32:42;17.33;;;9.60;;
72273;SDS011;60208;48.692;8.948;2023-01-26T05:35:07;17.90;;;10.02;;
72273;SDS011;60208;48.692;8.948;2023-01-26T05:37:33;17.20;;;9.98;;
72273;SDS011;60208;48.692;8.948;2023-01-26T05:39:58;16.77;;;9.60;;
72273;SDS011;60208;48.692;8.948;2023-01-26T05:42:24;17.48;;;9.80;;
72273;SDS011;60208;48.692;8.948;2023-01-26T05:44:50;15.85;;;9.32;;
72273;SDS011;60208;48.692;8.948;2023-01-26T05:47:16;16.27;;;9.50;;
72273;SDS011;60208;48.692;8.948;2023-01-26T05:49:41;15.20;;;9.05;;
72273;SDS011;60208;48.692;8.948;2023-01-26T05:52:19;17.27;;;9.50;;
72273;SDS011;60208;48.692;8.948;2023-01-26T05:54:45;15.93;;;8.95;;
72273;SDS011;60208;48.692;8.948;2023-01-26T05:57:11;13.35;;;8.40;;
72273;SDS011;60208;48.692;8.948;2023-01-26T05:59:36;16.88;;;9.60;;
72273;SDS011;60208;48.692;8.948;2023-01-26T06:02:02;16.52;;;9.63;;
72273;SDS011;60208;48.692;8.948;2023-01-26T06:04:27;18.85;;;10.05;;
72273;SDS011;60208;48.692;8.948;2023-01-26T06:06:57;16.60;;;9.80;;
72273;SDS011;60208;48.692;8.948;2023-01-26T06:09:23;18.27;;;10.32;;
72273;SDS011;60208;48.692;8.948;2023-01-26T06:11:49;18.33;;;11.20;;
72273;SDS011;60208;48.692;8.948;2023-01-26T06:14:14;21.17;;;12.52;;
72273;SDS011;60208;48.692;8.948;2023-01-26T06:16:40;22.00;;;12.80;;
72273;SDS011;60208;48.692;8.948;2023-01-26T06:19:05;21.08;;;12.27;;
72273;SDS011;60208;48.692;8.948;2023-01-26T06:21:31;27.30;;;12.55;;
72273;SDS011;60208;48.692;8.948;2023-01-26T06:23:57;21.48;;;13.02;;
72273;SDS011;60208;48.692;8.948;2023-01-26T06:26:22;22.83;;;13.02;;
72273;SDS011;60208;48.692;8.948;2023-01-26T06:28:51;24.55;;;13.10;;
72273;SDS011;60208;48.692;8.948;2023-01-26T06:31:17;23.67;;;13.43;;
72273;SDS011;60208;48.692;8.948;2023-01-26T06:33:43;24.23;;;13.55;;
72273;SDS011;60208;48.692;8.948;2023-01-26T06:36:09;26.08;;;13.93;;
72273;SDS011;60208;48.692;8.948;2023-01-26T06:38:36;24.85;;;14.00;;
72273;SDS011;60208;48.692;8.948;2023-01-26T06:41:02;24.02;;;14.10;;
72273;SDS011;60208;48.692;8.948;2023-01-26T06:43:29;24.02;;;13.48;;
72273;SDS011;60208;48.692;8.948;2023-01-26T06:45:56;28.63;;;15.35;;
72273;SDS011;60208;48.692;8.948;2023-01-26T06:48:22;27.13;;;15.32;;
72273;SDS011;60208;48.692;8.948;2023-01-26T06:50:48;25.40;;;14.32;;
72273;SDS011;60208;48.692;8.948;2023-01-26T06:53:23;26.30;;;14.68;;
72273;SDS011;60208;48.692;8.948;2023-01-26T06:55:49;24.52;;;14.55;;
72273;SDS011;60208;48.692;8.948;2023-01-26T06:58:16;23.95;;;13.65;;
72273;SDS011;60208;48.692;8.948;2023-01-26T07:00:41;22.33;;;12.70;;
72273;SDS011;60208;48.692;8.948;2023-01-26T07:03:07;22.88;;;13.15;;
72273;SDS011;60208;48.692;8.948;2023-01-26T07:05:34;26.75;;;13.73;;
72273;SDS011;60208;48.692;8.948;2023-01-26T07:07:59;22.08;;;12.88;;
72273;SDS011;60208;48.692;8.948;2023-01-26T07:10:26;23.70;;;13.30;;
72273;SDS011;60208;48.692;8.948;2023-01-26T07:12:51;24.20;;;13.40;;
72273;SDS011;60208;48.692;8.948;2023-01-26T07:15:17;25.67;;;12.93;;
72273;SDS011;60208;48.692;8.948;2023-01-26T07:17:42;26.20;;;13.35;;
72273;SDS011;60208;48.692;8.948;2023-01-26T07:20:08;21.77;;;12.93;;
72273;SDS011;60208;48.692;8.948;2023-01-26T07:22:34;24.67;;;12.98;;
72273;SDS011;60208;48.692;8.948;2023-01-26T07:24:59;22.95;;;12.93;;
72273;SDS011;60208;48.692;8.948;2023-01-26T07:27:24;25.67;;;13.07;;
72273;SDS011;60208;48.692;8.948;2023-01-26T07:29:50;21.52;;;12.60;;
72273;SDS011;60208;48.692;8.948;2023-01-26T07:32:16;24.33;;;12.50;;
72273;SDS011;60208;48.692;8.948;2023-01-26T07:34:41;22.23;;;12.95;;
72273;SDS011;60208;48.692;8.948;2023-01-26T07:37:07;24.38;;;13.65;;
72273;SDS011;60208;48.692;8.948;2023-01-26T07:39:32;27.73;;;15.20;;
72273;SDS011;60208;48.692;8.948;2023-01-26T07:41:58;25.75;;;15.35;;
72273;SDS011;60208;48.692;8.948;2023-01-26T07:44:24;23.65;;;13.32;;
72273;SDS011;60208;48.692;8.948;2023-01-26T07:46:49;25.65;;;13.75;;
72273;SDS011;60208;48.692;8.948;2023-01-26T07:49:18;23.50;;;13.32;;
72273;SDS011;60208;48.692;8.948;2023-01-26T07:51:43;23.20;;;12.40;;
72273;SDS011;60208;48.692;8.948;2023-01-26T07:54:09;21.13;;;12.30;;
72273;SDS011;60208;48.692;8.948;2023-01-26T07:56:35;22.48;;;13.82;;
72273;SDS011;60208;48.692;8.948;2023-01-26T07:59:01;26.60;;;13.70;;
72273;SDS011;60208;48.692;8.948;2023-01-26T08:01:26;23.15;;;12.65;;
72273;SDS011;60208;48.692;8.948;2023-01-26T08:03:52;24.25;;;13.15;;
72273;SDS011;60208;48.692;8.948;2023-01-26T08:06:20;23.58;;;13.23;;
72273;SDS011;60208;48.692;8.948;2023-01-26T08:08:46;22.60;;;13.25;;
72273;SDS011;60208;48.692;8.948;2023-01-26T08:11:17;21.52;;;12.57;;
72273;SDS011;60208;48.692;8.948;2023-01-26T08:13:47;22.80;;;12.90;;
72273;SDS011;60208;48.692;8.948;2023-01-26T08:16:12;23.85;;;12.68;;
72273;SDS011;60208;48.692;8.948;2023-01-26T08:18:41;22.73;;;12.35;;
72273;SDS011;60208;48.692;8.948;2023-01-26T08:21:08;22.05;;;12.65;;
72273;SDS011;60208;48.692;8.948;2023-01-26T08:23:34;21.48;;;12.15;;
72273;SDS011;60208;48.692;8.948;2023-01-26T08:26:01;20.70;;;12.65;;
72273;SDS011;60208;48.692;8.948;2023-01-26T08:28:27;20.10;;;11.73;;
72273;SDS011;60208;48.692;8.948;2023-01-26T08:30:53;20.08;;;11.65;;
72273;SDS011;60208;48.692;8.948;2023-01-26T08:33:18;21.67;;;11.48;;
72273;SDS011;60208;48.692;8.948;2023-01-26T08:35:44;25.75;;;13.40;;
72273;SDS011;60208;48.692;8.948;2023-01-26T08:38:09;22.52;;;12.30;;
72273;SDS011;60208;48.692;8.948;2023-01-26T08:40:34;22.42;;;12.65;;
72273;SDS011;60208;48.692;8.948;2023-01-26T08:43:00;19.50;;;10.88;;
72273;SDS011;60208;48.692;8.948;2023-01-26T08:45:26;20.95;;;11.45;;
72273;SDS011;60208;48.692;8.948;2023-01-26T08:47:52;20.50;;;11.25;;
72273;SDS011;60208;48.692;8.948;2023-01-26T08:50:17;21.52;;;11.18;;
72273;SDS011;60208;48.692;8.948;2023-01-26T08:52:43;19.73;;;12.02;;
72273;SDS011;60208;48.692;8.948;2023-01-26T08:55:09;19.55;;;11.10;;
72273;SDS011;60208;48.692;8.948;2023-01-26T08:57:34;19.25;;;11.50;;
72273;SDS011;60208;48.692;8.948;2023-01-26T09:00:00;20.48;;;11.68;;
72273;SDS011;60208;48.692;8.948;2023-01-26T09:02:26;18.20;;;11.15;;
72273;SDS011;60208;48.692;8.948;2023-01-26T09:04:51;18.95;;;11.15;;
72273;SDS011;60208;48.692;8.948;2023-01-26T09:07:16;20.50;;;10.90;;
72273;SDS011;60208;48.692;8.948;2023-01-26T09:09:42;18.27;;;10.50;;
72273;SDS011;60208;48.692;8.948;2023-01-26T09:12:07;21.20;;;12.65;;
72273;SDS011;60208;48.692;8.948;2023-01-26T09:14:32;16.83;;;10.38;;
72273;SDS011;60208;48.692;8.948;2023-01-26T09:16:58;20.63;;;10.68;;
72273;SDS011;60208;48.692;8.948;2023-01-26T09:19:23;19.05;;;11.40;;
72273;SDS011;60208;48.692;8.948;2023-01-26T09:21:52;21.45;;;11.48;;
72273;SDS011;60208;48.692;8.948;2023-01-26T09:24:21;20.42;;;10.95;;
72273;SDS011;60208;48.692;8.948;2023-01-26T09:26:46;17.85;;;11.55;;
72273;SDS011;60208;48.692;8.948;2023-01-26T09:29:12;18.25;;;11.40;;
72273;SDS011;60208;48.692;8.948;2023-01-26T09:31:37;18.60;;;11.63;;
72273;SDS011;60208;48.692;8.948;2023-01-26T09:34:04;21.15;;;13.48;;
72273;SDS011;60208;48.692;8.948;2023-01-26T09:36:30;19.02;;;11.32;;
72273;SDS011;60208;48.692;8.948;2023-01-26T09:38:55;17.08;;;10.00;;
72273;SDS011;60208;48.692;8.948;2023-01-26T09:41:55;16.10;;;9.93;;
72273;SDS011;60208;48.692;8.948;2023-01-26T09:44:21;17.25;;;9.57;;
72273;SDS011;60208;48.692;8.948;2023-01-26T09:49:23;16.60;;;10.13;;
72273;SDS011;60208;48.692;8.948;2023-01-26T09:51:57;20.10;;;11.07;;
72273;SDS011;60208;48.692;8.948;2023-01-26T09:54:37;14.52;;;8.98;;
72273;SDS011;60208;48.692;8.948;2023-01-26T09:57:16;16.65;;;8.90;;
72273;SDS011;60208;48.692;8.948;2023-01-26T10:00:09;17.00;;;9.82;;
72273;SDS011;60208;48.692;8.948;2023-01-26T10:08:18;15.68;;;10.25;;
72273;SDS011;60208;48.692;8.948;2023-01-26T10:10:48;16.00;;;9.82;;
72273;SDS011;60208;48.692;8.948;2023-01-26T10:13:17;17.17;;;10.75;;
72273;SDS011;60208;48.692;8.948;2023-01-26T10:15:46;22.42;;;11.10;;
72273;SDS011;60208;48.692;8.948;2023-01-26T10:18:20;15.85;;;10.02;;
72273;SDS011;60208;48.692;8.948;2023-01-26T10:20:50;18.27;;;10.65;;
72273;SDS011;60208;48.692;8.948;2023-01-26T10:23:20;16.70;;;9.98;;
72273;SDS011;60208;48.692;8.948;2023-01-26T10:25:47;19.00;;;10.70;;
72273;SDS011;60208;48.692;8.948;2023-01-26T10:28:18;14.55;;;9.35;;
72273;SDS011;60208;48.692;8.948;2023-01-26T10:30:47;17.55;;;9.68;;
72273;SDS011;60208;48.692;8.948;2023-01-26T10:33:23;20.17;;;11.63;;
72273;SDS011;60208;48.692;8.948;2023-01-26T10:35:59;14.00;;;8.77;;
72273;SDS011;60208;48.692;8.948;2023-01-26T10:40:51;12.00;;;7.50;;
72273;SDS011;60208;48.692;8.948;2023-01-26T10:43:16;11.45;;;7.13;;
72273;SDS011;60208;48.692;8.948;2023-01-26T10:45:46;13.35;;;8.55;;
72273;SDS011;60208;48.692;8.948;2023-01-26T10:48:22;15.73;;;9.38;;
72273;SDS011;60208;48.692;8.948;2023-01-26T10:50:48;16.58;;;9.20;;
72273;SDS011;60208;48.692;8.948;2023-01-26T10:53:32;16.45;;;9.68;;
72273;SDS011;60208;48.692;8.948;2023-01-26T11:01:49;16.15;;;9.65;;
72273;SDS011;60208;48.692;8.948;2023-01-26T11:04:19;17.02;;;10.35;;
72273;SDS011;60208;48.692;8.948;2023-01-26T11:06:45;19.33;;;10.20;;
72273;SDS011;60208;48.692;8.948;2023-01-26T11:11:39;19.70;;;10.80;;
72273;SDS011;60208;48.692;8.948;2023-01-26T11:16:50;21.95;;;12.48;;
72273;SDS011;60208;48.692;8.948;2023-01-26T11:21:58;34.17;;;16.48;;
72273;SDS011;60208;48.692;8.948;2023-01-26T11:30:16;21.13;;;11.20;;
72273;SDS011;60208;48.692;8.948;2023-01-26T11:37:55;37.67;;;24.88;;
72273;SDS011;60208;48.692;8.948;2023-01-26T11:40:47;23.67;;;15.97;;
72273;SDS011;60208;48.692;8.948;2023-01-26T11:46:00;19.15;;;11.73;;
72273;SDS011;60208;48.692;8.948;2023-01-26T11:51:22;22.05;;;11.95;;
72273;SDS011;60208;48.692;8.948;2023-01-26T11:59:33;20.90;;;11.23;;
72273;SDS011;60208;48.692;8.948;2023-01-26T12:04:48;23.63;;;12.27;;
72273;SDS011;60208;48.692;8.948;2023-01-26T12:07:21;20.27;;;11.30;;
72273;SDS011;60208;48.692;8.948;2023-01-26T12:09:51;19.73;;;11.60;;
72273;SDS011;60208;48.692;8.948;2023-01-26T12:12:25;24.80;;;13.02;;
72273;SDS011;60208;48.692;8.948;2023-01-26T12:15:05;22.38;;;12.05;;
72273;SDS011;60208;48.692;8.948;2023-01-26T12:25:38;18.70;;;11.30;;
72273;SDS011;60208;48.692;8.948;2023-01-26T12:33:31;20.98;;;11.00;;
72273;SDS011;60208;48.692;8.948;2023-01-26T12:46:52;24.10;;;12.35;;
72273;SDS011;60208;48.692;8.948;2023-01-26T12:51:53;22.00;;;11.13;;
72273;SDS011;60208;48.692;8.948;2023-01-26T12:57:17;21.47;;;11.87;;
72273;SDS011;60208;48.692;8.948;2023-01-26T12:59:45;17.15;;;10.25;;
72273;SDS011;60208;48.692;8.948;2023-01-26T13:04:39;18.27;;;11.05;;
72273;SDS011;60208;48.692;8.948;2023-01-26T13:07:25;17.98;;;10.10;;
72273;SDS011;60208;48.692;8.948;2023-01-26T13:15:23;21.38;;;11.20;;
72273;SDS011;60208;48.692;8.948;2023-01-26T13:22:47;17.67;;;9.95;;
72273;SDS011;60208;48.692;8.948;2023-01-26T13:25:15;17.98;;;9.57;;
72273;SDS011;60208;48.692;8.948;2023-01-26T13:27:53;18.85;;;10.25;;
72273;SDS011;60208;48.692;8.948;2023-01-26T13:32:53;20.42;;;9.30;;
72273;SDS011;60208;48.692;8.948;2023-01-26T13:35:26;20.83;;;10.77;;
72273;SDS011;60208;48.692;8.948;2023-01-26T13:43:45;17.70;;;10.30;;
72273;SDS011;60208;48.692;8.948;2023-01-26T13:48:40;22.10;;;11.57;;
72273;SDS011;60208;48.692;8.948;2023-01-26T13:51:14;23.05;;;12.27;;
72273;SDS011;60208;48.692;8.948;2023-01-26T13:53:46;19.92;;;10.95;;
72273;SDS011;60208;48.692;8.948;2023-01-26T13:58:47;21.50;;;10.98;;
72273;SDS011;60208;48.692;8.948;2023-01-26T14:01:13;20.10;;;10.88;;
72273;SDS011;60208;48.692;8.948;2023-01-26T14:03:39;19.90;;;11.65;;
72273;SDS011;60208;48.692;8.948;2023-01-26T14:06:05;19.92;;;11.23;;
72273;SDS011;60208;48.692;8.948;2023-01-26T14:08:35;20.45;;;10.77;;
72273;SDS011;60208;48.692;8.948;2023-01-26T14:11:02;22.98;;;10.80;;
72273;SDS011;60208;48.692;8.948;2023-01-26T14:13:36;17.73;;;10.05;;
72273;SDS011;60208;48.692;8.948;2023-01-26T14:16:03;19.50;;;10.30;;
72273;SDS011;60208;48.692;8.948;2023-01-26T14:18:30;20.90;;;10.65;;
72273;SDS011;60208;48.692;8.948;2023-01-26T14:21:00;25.13;;;13.82;;
72273;SDS011;60208;48.692;8.948;2023-01-26T14:23:35;29.63;;;16.05;;
72273;SDS011;60208;48.692;8.948;2023-01-26T14:26:05;34.38;;;17.25;;
72273;SDS011;60208;48.692;8.948;2023-01-26T14:28:40;25.73;;;13.32;;
72273;SDS011;60208;48.692;8.948;2023-01-26T14:31:19;21.92;;;12.35;;
72273;SDS011;60208;48.692;8.948;2023-01-26T14:33:50;44.50;;;25.17;;
72273;SDS011;60208;48.692;8.948;2023-01-26T14:36:19;29.10;;;15.10;;
72273;SDS011;60208;48.692;8.948;2023-01-26T14:38:46;24.83;;;13.77;;
72273;SDS011;60208;48.692;8.948;2023-01-26T14:43:50;23.88;;;13.10;;
72273;SDS011;60208;48.692;8.948;2023-01-26T14:46:18;24.70;;;13.02;;
72273;SDS011;60208;48.692;8.948;2023-01-26T14:48:51;26.73;;;14.93;;
72273;SDS011;60208;48.692;8.948;2023-01-26T14:51:38;27.60;;;14.23;;
72273;SDS011;60208;48.692;8.948;2023-01-26T14:54:09;27.42;;;15.10;;
72273;SDS011;60208;48.692;8.948;2023-01-26T14:56:39;25.20;;;13.10;;
72273;SDS011;60208;48.692;8.948;2023-01-26T14:59:05;35.55;;;17.25;;
72273;SDS011;60208;48.692;8.948;2023-01-26T15:01:32;34.25;;;18.23;;
72273;SDS011;60208;48.692;8.948;2023-01-26T15:03:58;26.40;;;15.85;;
72273;SDS011;60208;48.692;8.948;2023-01-26T15:06:27;27.08;;;14.52;;
72273;SDS011;60208;48.692;8.948;2023-01-26T15:11:26;24.67;;;12.52;;
72273;SDS011;60208;48.692;8.948;2023-01-26T15:14:25;25.45;;;12.50;;
72273;SDS011;60208;48.692;8.948;2023-01-26T15:16:54;22.10;;;11.83;;
72273;SDS011;60208;48.692;8.948;2023-01-26T15:19:23;21.45;;;11.77;;
72273;SDS011;60208;48.692;8.948;2023-01-26T15:21:49;21.20;;;12.27;;
72273;SDS011;60208;48.692;8.948;2023-01-26T15:24:15;25.25;;;12.82;;
72273;SDS011;60208;48.692;8.948;2023-01-26T15:26:41;26.52;;;13.80;;
72273;SDS011;60208;48.692;8.948;2023-01-26T15:31:41;23.88;;;12.52;;
72273;SDS011;60208;48.692;8.948;2023-01-26T15:34:27;26.83;;;12.77;;
72273;SDS011;60208;48.692;8.948;2023-01-26T15:36:53;25.50;;;12.80;;
72273;SDS011;60208;48.692;8.948;2023-01-26T15:39:18;25.60;;;12.68;;
72273;SDS011;60208;48.692;8.948;2023-01-26T15:41:45;25.27;;;12.88;;
72273;SDS011;60208;48.692;8.948;2023-01-26T15:44:23;24.60;;;12.52;;
72273;SDS011;60208;48.692;8.948;2023-01-26T15:46:48;29.58;;;13.90;;
72273;SDS011;60208;48.692;8.948;2023-01-26T15:49:14;26.77;;;13.60;;
72273;SDS011;60208;48.692;8.948;2023-01-26T15:51:39;27.90;;;12.85;;
72273;SDS011;60208;48.692;8.948;2023-01-26T15:54:05;26.75;;;12.93;;
72273;SDS011;60208;48.692;8.948;2023-01-26T15:56:30;23.88;;;13.73;;
72273;SDS011;60208;48.692;8.948;2023-01-26T15:58:56;29.80;;;14.77;;
72273;SDS011;60208;48.692;8.948;2023-01-26T16:01:22;25.50;;;13.93;;
72273;SDS011;60208;48.692;8.948;2023-01-26T16:03:48;27.65;;;14.25;;
72273;SDS011;60208;48.692;8.948;2023-01-26T16:06:18;26.90;;;13.57;;
72273;SDS011;60208;48.692;8.948;2023-01-26T16:08:46;28.10;;;14.18;;
72273;SDS011;60208;48.692;8.948;2023-01-26T16:11:11;28.58;;;13.55;;
72273;SDS011;60208;48.692;8.948;2023-01-26T16:13:37;28.55;;;15.02;;
72273;SDS011;60208;48.692;8.948;2023-01-26T16:16:04;27.40;;;14.60;;
72273;SDS011;60208;48.692;8.948;2023-01-26T16:18:30;25.50;;;12.80;;
72273;SDS011;60208;48.692;8.948;2023-01-26T16:20:55;21.58;;;11.45;;
72273;SDS011;60208;48.692;8.948;2023-01-26T16:23:22;18.90;;;11.18;;
72273;SDS011;60208;48.692;8.948;2023-01-26T16:25:49;18.80;;;11.05;;
72273;SDS011;60208;48.692;8.948;2023-01-26T16:28:15;18.30;;;11.63;;
72273;SDS011;60208;48.692;8.948;2023-01-26T16:30:41;21.58;;;11.50;;
72273;SDS011;60208;48.692;8.948;2023-01-26T16:33:13;16.65;;;10.70;;